createdAt,value
2018-03-11T00:01:31.561Z,14.77
2018-03-11T00:03:59.122Z,14.97
2018-03-11T00:06:26.642Z,14.50
2018-03-11T00:08:54.938Z,14.87
2018-03-11T00:11:22.485Z,14.37
2018-03-11T00:13:50.008Z,13.33
2018-03-11T00:16:17.536Z,14.40
2018-03-11T00:18:45.385Z,13.97
2018-03-11T00:21:12.910Z,14.33
2018-03-11T00:23:40.454Z,14.17
2018-03-11T00:26:07.989Z,14.83
2018-03-11T00:28:35.501Z,14.13
2018-03-11T00:31:03.029Z,13.70
2018-03-11T00:33:30.555Z,14.10
2018-03-11T00:35:58.170Z,14.50
2018-03-11T00:38:26.326Z,14.23
2018-03-11T00:40:56.462Z,14.77
2018-03-11T00:43:23.983Z,14.40
2018-03-11T00:45:51.503Z,15.43
2018-03-11T00:48:19.028Z,15.00
2018-03-11T00:50:46.567Z,13.90
2018-03-11T00:53:14.080Z,14.27
2018-03-11T00:55:41.606Z,14.20
2018-03-11T00:58:09.201Z,14.17
2018-03-11T01:00:38.462Z,14.40
2018-03-11T01:03:05.980Z,13.70
2018-03-11T01:05:33.695Z,14.97
2018-03-11T01:08:01.221Z,13.93
2018-03-11T01:10:28.758Z,15.10
2018-03-11T01:12:56.284Z,14.17
2018-03-11T01:15:23.814Z,16.30
2018-03-11T01:17:51.401Z,14.80
2018-03-11T01:20:18.923Z,14.53
2018-03-11T01:22:46.547Z,14.77
2018-03-11T01:25:14.063Z,15.20
2018-03-11T01:27:41.599Z,14.43
2018-03-11T01:30:09.121Z,15.80
2018-03-11T01:32:37.330Z,14.57
2018-03-11T01:35:04.855Z,14.53
2018-03-11T01:37:32.376Z,13.93
2018-03-11T01:39:59.898Z,15.13
2018-03-11T01:42:27.414Z,15.27
2018-03-11T01:44:54.931Z,15.07
2018-03-11T01:47:22.440Z,13.33
2018-03-11T01:49:49.963Z,15.10
2018-03-11T01:52:18.565Z,14.70
2018-03-11T01:54:46.085Z,14.60
2018-03-11T01:57:14.538Z,14.63
2018-03-11T01:59:42.092Z,15.03
2018-03-11T02:02:09.950Z,15.07
2018-03-11T02:04:37.478Z,14.97
2018-03-11T02:07:05.827Z,15.20
2018-03-11T02:09:33.356Z,15.37
2018-03-11T02:12:00.888Z,15.17
2018-03-11T02:14:28.765Z,14.70
2018-03-11T02:16:56.537Z,15.23
2018-03-11T02:19:24.068Z,15.20
2018-03-11T02:21:51.586Z,14.97
2018-03-11T02:24:19.116Z,15.50
2018-03-11T02:26:46.639Z,15.50
2018-03-11T02:29:14.157Z,15.27
2018-03-11T02:31:41.674Z,15.60
2018-03-11T02:34:09.203Z,15.67
2018-03-11T02:36:36.715Z,14.83
2018-03-11T02:39:04.239Z,15.43
2018-03-11T02:41:31.762Z,15.50
2018-03-11T02:43:59.289Z,16.03
2018-03-11T02:46:26.805Z,15.40
2018-03-11T02:48:54.328Z,15.27
2018-03-11T02:51:21.847Z,16.10
2018-03-11T02:53:49.366Z,15.57
2018-03-11T02:56:16.894Z,15.73
2018-03-11T02:58:44.410Z,14.87
2018-03-11T03:01:11.957Z,14.60
2018-03-11T03:03:39.477Z,14.70
2018-03-11T03:06:06.994Z,15.67
2018-03-11T03:08:34.506Z,15.10
2018-03-11T03:11:02.018Z,15.57
2018-03-11T03:13:29.619Z,14.50
2018-03-11T03:15:57.143Z,14.93
2018-03-11T03:18:24.658Z,15.90
2018-03-11T03:20:52.189Z,15.00
2018-03-11T03:23:19.710Z,15.23
2018-03-11T03:25:47.235Z,15.87
2018-03-11T03:28:14.758Z,14.27
2018-03-11T03:30:42.274Z,14.90
2018-03-11T03:33:09.795Z,14.87
2018-03-11T03:35:37.317Z,15.80
2018-03-11T03:38:04.834Z,14.93
2018-03-11T03:40:32.361Z,15.67
2018-03-11T03:42:59.892Z,15.17
2018-03-11T03:45:27.412Z,15.20
2018-03-11T03:47:54.931Z,15.87
2018-03-11T03:50:22.459Z,15.97
2018-03-11T03:52:49.981Z,15.00
2018-03-11T03:55:17.522Z,16.23
2018-03-11T03:57:45.038Z,15.63
2018-03-11T04:00:12.558Z,15.67
2018-03-11T04:02:40.069Z,17.20
2018-03-11T04:05:07.592Z,16.70
2018-03-11T04:07:35.105Z,17.10
2018-03-11T04:10:02.613Z,15.90
2018-03-11T04:12:30.129Z,16.87
2018-03-11T04:14:57.649Z,15.73
2018-03-11T04:17:25.174Z,16.80
2018-03-11T04:19:52.690Z,17.87
2018-03-11T04:22:20.611Z,17.00
2018-03-11T04:24:48.138Z,16.97
2018-03-11T04:27:15.660Z,17.27
2018-03-11T04:29:43.181Z,15.83
2018-03-11T04:32:10.702Z,17.00
2018-03-11T04:34:38.250Z,15.97
2018-03-11T04:37:05.760Z,16.27
2018-03-11T04:39:34.268Z,16.37
2018-03-11T04:42:01.791Z,16.67
2018-03-11T04:44:29.302Z,17.97
2018-03-11T04:46:56.828Z,17.23
2018-03-11T04:49:24.349Z,17.63
2018-03-11T04:51:51.863Z,17.13
2018-03-11T04:54:20.080Z,17.53
2018-03-11T04:56:47.599Z,17.57
2018-03-11T04:59:15.122Z,17.17
2018-03-11T05:01:42.639Z,18.60
2018-03-11T05:04:10.480Z,17.97
2018-03-11T05:06:38.009Z,18.17
2018-03-11T05:09:05.522Z,17.60
2018-03-11T05:11:33.037Z,17.50
2018-03-11T05:14:00.552Z,18.73
2018-03-11T05:16:28.068Z,18.40
2018-03-11T05:18:55.582Z,17.67
2018-03-11T05:21:23.109Z,16.23
2018-03-11T05:23:50.635Z,18.30
2018-03-11T05:26:18.150Z,17.57
2018-03-11T05:28:45.672Z,18.43
2018-03-11T05:31:13.199Z,17.87
2018-03-11T05:33:40.726Z,18.00
2018-03-11T05:36:08.262Z,16.97
2018-03-11T05:38:35.798Z,17.63
2018-03-11T05:41:03.305Z,18.50
2018-03-11T05:43:30.818Z,18.90
2018-03-11T05:45:59.362Z,17.57
2018-03-11T05:48:28.007Z,17.30
2018-03-11T05:50:55.525Z,17.30
2018-03-11T05:53:23.037Z,18.97
2018-03-11T05:55:50.570Z,17.27
2018-03-11T05:58:18.636Z,17.83
2018-03-11T06:00:46.164Z,16.97
2018-03-11T06:03:13.685Z,17.33
2018-03-11T06:05:41.206Z,16.77
2018-03-11T06:08:08.729Z,17.73
2018-03-11T06:10:37.314Z,17.43
2018-03-11T06:13:04.805Z,17.60
2018-03-11T06:15:32.337Z,16.93
2018-03-11T06:17:59.854Z,16.67
2018-03-11T06:20:27.380Z,17.40
2018-03-11T06:22:54.898Z,16.20
2018-03-11T06:25:22.431Z,17.47
2018-03-11T06:27:50.753Z,17.10
2018-03-11T06:30:18.275Z,15.57
2018-03-11T06:32:46.857Z,15.77
2018-03-11T06:35:14.374Z,15.50
2018-03-11T06:37:41.899Z,15.30
2018-03-11T06:40:10.231Z,15.93
2018-03-11T06:42:37.754Z,16.40
2018-03-11T06:45:05.271Z,16.53
2018-03-11T06:47:32.795Z,15.40
2018-03-11T06:50:01.174Z,16.83
2018-03-11T06:52:28.693Z,17.00
2018-03-11T06:54:56.243Z,16.67
2018-03-11T06:57:23.765Z,16.23
2018-03-11T06:59:51.289Z,16.30
2018-03-11T07:02:19.020Z,17.07
2018-03-11T07:04:46.536Z,18.43
2018-03-11T07:07:14.065Z,18.60
2018-03-11T07:09:41.970Z,17.60
2018-03-11T07:12:10.813Z,18.27
2018-03-11T07:14:38.379Z,18.13
2018-03-11T07:17:05.910Z,17.90
2018-03-11T07:19:33.442Z,17.53
2018-03-11T07:22:00.966Z,17.17
2018-03-11T07:24:28.491Z,17.17
2018-03-11T07:26:56.784Z,17.67
2018-03-11T07:29:24.300Z,18.00
2018-03-11T07:31:52.190Z,16.80
2018-03-11T07:34:19.721Z,17.07
2018-03-11T07:36:47.689Z,17.93
2018-03-11T07:39:15.204Z,17.13
2018-03-11T07:41:43.626Z,16.87
2018-03-11T07:44:11.179Z,17.87
2018-03-11T07:46:39.740Z,16.87
2018-03-11T07:49:07.472Z,16.87
2018-03-11T07:51:34.991Z,15.43
2018-03-11T07:54:02.541Z,16.50
2018-03-11T07:56:30.078Z,16.10
2018-03-11T07:58:58.457Z,15.57
2018-03-11T08:01:26.018Z,16.37
2018-03-11T08:03:53.546Z,15.23
2018-03-11T08:06:21.071Z,15.53
2018-03-11T08:08:48.650Z,16.03
2018-03-11T08:11:16.200Z,15.40
2018-03-11T08:13:43.719Z,14.87
2018-03-11T08:16:11.246Z,14.77
2018-03-11T08:18:39.382Z,15.40
2018-03-11T08:21:06.939Z,14.90
2018-03-11T08:23:35.255Z,14.47
2018-03-11T08:26:02.790Z,15.30
2018-03-11T08:28:32.124Z,15.03
2018-03-11T08:30:59.645Z,14.67
2018-03-11T08:33:30.223Z,14.50
2018-03-11T08:35:57.803Z,14.60
2018-03-11T08:38:25.424Z,14.03
2018-03-11T08:40:52.946Z,14.70
2018-03-11T08:43:20.680Z,14.33
2018-03-11T08:45:48.207Z,14.00
2018-03-11T08:48:15.747Z,15.07
2018-03-11T08:50:43.290Z,14.50
2018-03-11T08:53:11.332Z,13.77
2018-03-11T08:55:38.853Z,13.73
2018-03-11T08:58:06.388Z,14.43
2018-03-11T09:00:33.979Z,14.17
2018-03-11T09:03:02.006Z,14.10
2018-03-11T09:05:30.897Z,13.77
2018-03-11T09:07:58.426Z,13.60
2018-03-11T09:10:26.116Z,13.27
2018-03-11T09:12:53.551Z,13.20
2018-03-11T09:15:21.110Z,14.47
2018-03-11T09:17:48.637Z,13.97
2018-03-11T09:20:16.337Z,13.33
2018-03-11T09:22:44.799Z,13.53
2018-03-11T09:25:12.730Z,12.73
2018-03-11T09:27:40.248Z,13.83
2018-03-11T09:30:11.453Z,14.90
2018-03-11T09:32:39.421Z,13.33
2018-03-11T09:35:07.012Z,13.87
2018-03-11T09:37:35.146Z,14.07
2018-03-11T09:40:02.688Z,13.43
2018-03-11T09:42:30.226Z,12.60
2018-03-11T09:44:59.051Z,13.17
2018-03-11T09:47:30.289Z,12.37
2018-03-11T09:49:57.860Z,12.50
2018-03-11T09:52:25.432Z,11.17
2018-03-11T09:54:55.286Z,11.50
2018-03-11T09:57:23.806Z,11.30
2018-03-11T09:59:51.576Z,10.20
2018-03-11T10:02:20.741Z,9.80
2018-03-11T10:04:50.512Z,10.77
2018-03-11T10:07:19.530Z,10.50
2018-03-11T10:09:47.901Z,10.77
2018-03-11T10:12:15.473Z,9.93
2018-03-11T10:14:44.517Z,9.53
2018-03-11T10:17:12.110Z,8.67
2018-03-11T10:19:40.334Z,8.30
2018-03-11T10:22:07.864Z,8.70
2018-03-11T10:24:36.990Z,8.93
2018-03-11T10:27:05.395Z,8.73
2018-03-11T10:29:32.912Z,7.90
2018-03-11T10:32:01.386Z,7.93
2018-03-11T10:34:30.211Z,8.37
2018-03-11T10:36:57.831Z,8.13
2018-03-11T10:39:28.726Z,7.63
2018-03-11T10:41:57.272Z,8.67
2018-03-11T10:44:24.958Z,8.50
2018-03-11T10:46:53.263Z,8.90
2018-03-11T10:49:21.752Z,7.40
2018-03-11T10:51:49.274Z,7.17
2018-03-11T10:54:18.325Z,7.07
2018-03-11T10:56:46.366Z,7.37
2018-03-11T10:59:13.886Z,6.33
2018-03-11T11:02:01.826Z,6.80
2018-03-11T11:07:29.946Z,5.97
2018-03-11T11:09:57.506Z,6.17
2018-03-11T11:12:25.029Z,6.33
2018-03-11T11:14:53.304Z,7.03
2018-03-11T11:17:20.822Z,7.80
2018-03-11T11:19:48.344Z,7.00
2018-03-11T11:22:15.865Z,7.03
2018-03-11T11:24:43.374Z,8.13
2018-03-11T11:27:10.888Z,7.37
2018-03-11T11:29:38.402Z,7.43
2018-03-11T11:32:05.922Z,8.20
2018-03-11T11:34:33.438Z,8.40
2018-03-11T11:37:00.966Z,8.73
2018-03-11T11:39:28.487Z,9.27
2018-03-11T11:41:56.004Z,9.27
2018-03-11T11:44:23.528Z,9.40
2018-03-11T11:46:51.054Z,10.10
2018-03-11T11:49:18.577Z,10.10
2018-03-11T11:51:46.167Z,10.77
2018-03-11T11:54:13.695Z,10.83
2018-03-11T11:56:41.221Z,10.97
2018-03-11T11:59:40.322Z,11.63
2018-03-11T12:02:07.888Z,12.17
2018-03-11T12:04:35.447Z,11.93
2018-03-11T12:07:02.982Z,12.27
2018-03-11T12:09:30.522Z,12.10
2018-03-11T12:11:59.061Z,10.63
2018-03-11T12:14:26.606Z,11.10
2018-03-11T12:16:54.759Z,12.00
2018-03-11T12:19:22.393Z,11.20
2018-03-11T12:21:49.996Z,11.47
2018-03-11T12:24:17.542Z,10.90
2018-03-11T12:26:45.056Z,9.80
2018-03-11T12:29:12.600Z,9.27
2018-03-11T12:31:40.209Z,8.40
2018-03-11T12:34:07.721Z,7.43
2018-03-11T12:36:35.232Z,6.07
2018-03-11T12:39:02.741Z,5.63
2018-03-11T12:41:30.283Z,5.70
2018-03-11T12:43:57.801Z,6.07
2018-03-11T12:46:25.349Z,5.90
2018-03-11T12:48:52.864Z,5.93
2018-03-11T12:51:20.393Z,6.03
2018-03-11T12:53:47.901Z,6.00
2018-03-11T12:56:15.451Z,6.27
2018-03-11T12:58:42.972Z,5.70
2018-03-11T13:01:10.487Z,6.00
2018-03-11T13:03:38.010Z,6.33
2018-03-11T13:06:05.534Z,5.83
2018-03-11T13:08:33.062Z,6.43
2018-03-11T13:11:00.581Z,6.30
2018-03-11T13:13:28.209Z,6.33
2018-03-11T13:15:55.782Z,6.43
2018-03-11T13:18:23.310Z,5.77
2018-03-11T13:21:02.620Z,6.00
2018-03-11T13:23:30.146Z,6.30
2018-03-11T13:25:57.669Z,5.63
2018-03-11T13:28:37.074Z,5.77
2018-03-11T13:31:04.664Z,6.43
2018-03-11T13:33:43.832Z,6.90
2018-03-11T13:36:11.350Z,6.57
2018-03-11T13:38:50.699Z,6.40
2018-03-11T13:41:18.275Z,6.27
2018-03-11T13:43:45.956Z,6.50
2018-03-11T13:46:25.509Z,6.30
2018-03-11T13:48:53.346Z,5.83
2018-03-11T13:51:32.706Z,6.30
2018-03-11T13:54:00.278Z,6.53
2018-03-11T13:56:27.798Z,6.83
2018-03-11T13:58:55.311Z,6.10
2018-03-11T14:01:22.845Z,6.70
2018-03-11T14:03:50.361Z,6.70
2018-03-11T14:06:17.870Z,6.80
2018-03-11T14:08:45.384Z,6.67
2018-03-11T14:11:12.906Z,7.10
2018-03-11T14:13:40.446Z,6.97
2018-03-11T14:16:07.974Z,6.77
2018-03-11T14:18:35.521Z,6.93
2018-03-11T14:21:03.032Z,5.70
2018-03-11T14:23:30.553Z,6.47
2018-03-11T14:25:58.097Z,5.67
2018-03-11T14:28:25.601Z,5.60
2018-03-11T14:30:53.126Z,5.60
2018-03-11T14:33:20.688Z,5.40
2018-03-11T14:35:48.710Z,6.77
2018-03-11T14:38:16.229Z,7.17
2018-03-11T14:40:43.888Z,7.30
2018-03-11T14:43:11.649Z,7.27
2018-03-11T14:45:39.179Z,7.10
2018-03-11T14:48:06.696Z,6.77
2018-03-11T14:50:34.324Z,6.17
2018-03-11T14:53:01.840Z,5.80
2018-03-11T14:55:29.376Z,5.77
2018-03-11T14:57:56.899Z,5.97
2018-03-11T15:00:24.431Z,5.30
2018-03-11T15:02:51.946Z,5.57
2018-03-11T15:05:19.469Z,6.33
2018-03-11T15:07:46.977Z,6.10
2018-03-11T15:10:14.495Z,5.80
2018-03-11T15:12:42.130Z,5.70
2018-03-11T15:15:09.670Z,5.93
2018-03-11T15:17:37.281Z,5.53
2018-03-11T15:20:04.799Z,5.43
2018-03-11T15:22:32.315Z,5.63
2018-03-11T15:24:59.833Z,5.77
2018-03-11T15:27:27.345Z,6.20
2018-03-11T15:29:54.860Z,6.17
2018-03-11T15:32:22.436Z,5.97
2018-03-11T15:34:49.954Z,6.23
2018-03-11T15:37:17.471Z,6.50
2018-03-11T15:39:45.002Z,6.53
2018-03-11T15:42:12.541Z,6.27
2018-03-11T15:44:40.082Z,6.20
2018-03-11T15:47:07.616Z,6.33
2018-03-11T15:49:35.203Z,6.53
2018-03-11T15:52:02.714Z,6.60
2018-03-11T15:54:30.374Z,6.30
2018-03-11T15:56:57.910Z,6.63
2018-03-11T15:59:25.446Z,6.40
2018-03-11T16:01:52.952Z,7.07
2018-03-11T16:04:20.492Z,6.60
2018-03-11T16:06:48.072Z,6.83
2018-03-11T16:09:15.589Z,8.50
2018-03-11T16:11:43.181Z,9.10
2018-03-11T16:14:10.740Z,7.90
2018-03-11T16:16:38.244Z,7.67
2018-03-11T16:19:05.876Z,8.10
2018-03-11T16:21:33.434Z,7.37
2018-03-11T16:24:00.958Z,7.87
2018-03-11T16:26:28.548Z,8.97
2018-03-11T16:28:56.078Z,7.73
2018-03-11T16:31:23.674Z,8.40
2018-03-11T16:33:51.191Z,7.30
2018-03-11T16:36:18.724Z,8.07
2018-03-11T16:38:46.269Z,7.87
2018-03-11T16:41:13.796Z,6.83
2018-03-11T16:43:41.366Z,7.13
2018-03-11T16:46:08.944Z,7.93
2018-03-11T16:48:36.451Z,7.50
2018-03-11T16:51:03.979Z,7.00
2018-03-11T16:53:31.508Z,6.77
2018-03-11T16:55:59.035Z,6.83
2018-03-11T16:58:26.573Z,7.40
2018-03-11T17:00:54.092Z,7.53
2018-03-11T17:03:21.612Z,6.97
2018-03-11T17:05:49.136Z,7.17
2018-03-11T17:08:16.655Z,7.10
2018-03-11T17:10:44.173Z,6.80
2018-03-11T17:13:11.694Z,6.87
2018-03-11T17:15:39.222Z,7.23
2018-03-11T17:18:06.754Z,7.20
2018-03-11T17:20:34.368Z,7.50
2018-03-11T17:23:01.881Z,7.67
2018-03-11T17:25:29.439Z,7.60
2018-03-11T17:27:56.961Z,7.13
2018-03-11T17:30:24.481Z,7.87
2018-03-11T17:32:51.993Z,7.07
2018-03-11T17:35:19.512Z,7.47
2018-03-11T17:37:47.033Z,7.63
2018-03-11T17:40:14.562Z,7.90
2018-03-11T17:42:42.098Z,8.10
2018-03-11T17:45:09.616Z,8.67
2018-03-11T17:47:37.141Z,8.87
2018-03-11T17:50:04.660Z,9.37
2018-03-11T17:52:32.177Z,9.87
2018-03-11T17:54:59.780Z,8.50
2018-03-11T17:57:27.306Z,9.30
2018-03-11T17:59:54.831Z,8.73
2018-03-11T18:02:22.342Z,9.43
2018-03-11T18:04:49.895Z,8.50
2018-03-11T18:07:17.418Z,10.63
2018-03-11T18:09:45.053Z,8.67
2018-03-11T18:12:12.572Z,9.27
2018-03-11T18:14:40.137Z,8.67
2018-03-11T18:17:07.688Z,9.20
2018-03-11T18:19:35.566Z,9.20
2018-03-11T18:22:04.125Z,9.50
2018-03-11T18:24:31.656Z,9.00
2018-03-11T18:26:59.170Z,8.20
2018-03-11T18:29:26.681Z,9.00
2018-03-11T18:31:54.216Z,8.30
2018-03-11T18:34:21.755Z,9.17
2018-03-11T18:36:49.268Z,8.63
2018-03-11T18:39:16.793Z,9.70
2018-03-11T18:41:44.309Z,9.17
2018-03-11T18:44:11.929Z,9.23
2018-03-11T18:46:39.458Z,9.80
2018-03-11T18:49:06.989Z,9.73
2018-03-11T18:51:34.556Z,9.10
2018-03-11T18:54:02.091Z,9.27
2018-03-11T18:56:29.615Z,9.77
2018-03-11T18:58:57.171Z,10.00
2018-03-11T19:01:24.701Z,9.77
2018-03-11T19:03:52.291Z,9.50
2018-03-11T19:06:19.813Z,9.47
2018-03-11T19:08:47.354Z,9.47
2018-03-11T19:11:14.976Z,9.60
2018-03-11T19:13:42.520Z,9.93
2018-03-11T19:16:10.044Z,10.33
2018-03-11T19:18:37.580Z,9.90
2018-03-11T19:21:05.110Z,12.30
2018-03-11T19:23:32.693Z,11.57
2018-03-11T19:26:01.216Z,11.53
2018-03-11T19:28:28.834Z,10.60
2018-03-11T19:30:56.354Z,11.27
2018-03-11T19:33:23.897Z,11.17
2018-03-11T19:35:51.434Z,11.10
2018-03-11T19:38:18.969Z,11.13
2018-03-11T19:40:46.524Z,10.83
2018-03-11T19:43:14.045Z,12.17
2018-03-11T19:45:41.580Z,11.03
2018-03-11T19:48:09.118Z,10.93
2018-03-11T19:50:36.647Z,12.17
2018-03-11T19:53:04.209Z,11.80
2018-03-11T19:55:31.734Z,11.87
2018-03-11T19:57:59.248Z,12.27
2018-03-11T20:00:26.772Z,12.10
2018-03-11T20:02:54.344Z,12.53
2018-03-11T20:05:21.871Z,12.00
2018-03-11T20:07:49.397Z,12.17
2018-03-11T20:10:16.922Z,13.13
2018-03-11T20:12:44.450Z,12.40
2018-03-11T20:15:11.979Z,12.77
2018-03-11T20:17:39.515Z,12.60
2018-03-11T20:20:07.857Z,12.80
2018-03-11T20:22:35.381Z,12.17
2018-03-11T20:25:02.943Z,12.80
2018-03-11T20:27:30.462Z,13.00
2018-03-11T20:29:58.014Z,12.20
2018-03-11T20:32:25.534Z,12.10
2018-03-11T20:34:53.111Z,11.77
2018-03-11T20:37:20.630Z,12.17
2018-03-11T20:39:48.149Z,11.53
2018-03-11T20:42:15.695Z,12.20
2018-03-11T20:44:43.230Z,13.30
2018-03-11T20:47:10.753Z,12.43
2018-03-11T20:49:38.276Z,12.77
2018-03-11T20:52:05.793Z,12.40
2018-03-11T20:54:33.310Z,12.03
2018-03-11T20:57:00.841Z,12.03
2018-03-11T20:59:28.358Z,12.27
2018-03-11T21:01:55.886Z,12.37
2018-03-11T21:04:23.454Z,12.67
2018-03-11T21:06:50.974Z,12.67
2018-03-11T21:09:18.539Z,13.10
2018-03-11T21:11:46.128Z,12.77
2018-03-11T21:14:13.645Z,11.87
2018-03-11T21:16:41.164Z,12.20
2018-03-11T21:19:08.691Z,12.40
2018-03-11T21:21:36.216Z,12.30
2018-03-11T21:24:03.738Z,11.60
2018-03-11T21:26:31.279Z,11.97
2018-03-11T21:28:58.843Z,12.43
2018-03-11T21:31:26.397Z,12.30
2018-03-11T21:33:53.936Z,11.70
2018-03-11T21:36:21.463Z,11.87
2018-03-11T21:38:48.992Z,12.63
2018-03-11T21:41:16.641Z,12.70
2018-03-11T21:43:44.301Z,12.30
2018-03-11T21:46:11.866Z,12.70
2018-03-11T21:48:39.395Z,13.27
2018-03-11T21:51:06.932Z,12.53
2018-03-11T21:53:34.476Z,12.77
2018-03-11T21:56:02.114Z,14.07
2018-03-11T21:58:29.693Z,13.07
2018-03-11T22:00:57.215Z,13.80
2018-03-11T22:03:24.788Z,12.80
2018-03-11T22:05:52.303Z,13.43
2018-03-11T22:08:19.829Z,13.20
2018-03-11T22:10:47.352Z,12.93
2018-03-11T22:13:14.925Z,13.60
2018-03-11T22:15:42.454Z,12.77
2018-03-11T22:18:09.986Z,12.20
2018-03-11T22:20:37.563Z,12.93
2018-03-11T22:23:05.090Z,12.50
2018-03-11T22:25:32.621Z,13.20
2018-03-11T22:28:00.146Z,13.63
2018-03-11T22:30:27.667Z,13.23
2018-03-11T22:32:55.201Z,13.83
2018-03-11T22:35:22.718Z,13.60
2018-03-11T22:37:50.255Z,13.73
2018-03-11T22:40:17.782Z,13.60
2018-03-11T22:42:45.308Z,13.97
2018-03-11T22:45:12.829Z,14.03
2018-03-11T22:47:40.360Z,14.37
2018-03-11T22:50:07.881Z,14.47
2018-03-11T22:52:35.474Z,15.07
2018-03-11T22:55:03.112Z,14.10
2018-03-11T22:57:30.638Z,14.13
2018-03-11T22:59:58.182Z,14.60
2018-03-11T23:02:25.708Z,14.60
2018-03-11T23:04:53.241Z,14.80
2018-03-11T23:07:20.758Z,14.57
2018-03-11T23:09:48.294Z,14.83
2018-03-11T23:12:15.821Z,15.00
2018-03-11T23:14:43.349Z,14.17
2018-03-11T23:17:10.973Z,15.20
2018-03-11T23:19:38.502Z,15.03
2018-03-11T23:22:06.038Z,15.47
2018-03-11T23:24:33.572Z,15.20
2018-03-11T23:27:01.214Z,15.03
2018-03-11T23:29:28.771Z,15.43
2018-03-11T23:31:56.408Z,15.07
2018-03-11T23:34:23.960Z,15.23
2018-03-11T23:36:51.519Z,15.40
2018-03-11T23:39:19.070Z,14.77
2018-03-11T23:41:46.594Z,15.67
2018-03-11T23:44:14.128Z,15.23
2018-03-11T23:46:41.691Z,15.07
2018-03-11T23:49:09.228Z,16.23
2018-03-11T23:51:36.743Z,15.00
2018-03-11T23:54:04.422Z,15.00
2018-03-11T23:56:31.969Z,15.33
2018-03-11T23:58:59.597Z,15.40
